Time;durP1;ratioP1;P1;durP2;ratioP2;P2;SDS_P1;SDS_P2;PMS_P1;PMS_P2;Temp;Humidity;BMP_temperature;BMP_pressure;BME280_temperature;BME280_humidity;BME280_pressure;Samples;Min_cycle;Max_cycle;Signal;HPM_P1;HPM_P2
2022/12/13 00:01:10;;;;;;;25.55;15.57;;;-1.70;99.90;;;;;;5047339;28;20205;-74
2022/12/13 00:03:59;;;;;;;24.35;17.20;;;-1.70;99.90;;;;;;5052838;28;20351;-75
2022/12/13 00:06:45;;;;;;;22.00;15.13;;;-1.70;99.90;;;;;;5052214;28;20209;-74
2022/12/13 00:09:31;;;;;;;24.80;15.68;;;-1.70;99.90;;;;;;5049450;28;20589;-74
2022/12/13 00:12:16;;;;;;;24.40;16.70;;;-1.70;99.90;;;;;;5049000;28;20641;-74
2022/12/13 00:15:02;;;;;;;21.90;15.82;;;-1.80;99.90;;;;;;5045922;28;20600;-74
2022/12/13 00:17:47;;;;;;;24.00;15.57;;;-2.10;99.90;;;;;;5046081;28;20300;-73
2022/12/13 00:20:33;;;;;;;25.13;15.98;;;-2.10;99.90;;;;;;5043002;28;20689;-74
2022/12/13 00:23:20;;;;;;;21.98;14.38;;;-2.00;99.90;;;;;;5054386;28;20692;-73
2022/12/13 00:26:07;;;;;;;24.50;15.75;;;-2.00;99.90;;;;;;5051177;28;20209;-76
2022/12/13 00:28:53;;;;;;;23.65;16.17;;;-2.20;99.90;;;;;;5052586;28;20299;-73
2022/12/13 00:31:39;;;;;;;19.95;13.63;;;-2.20;99.90;;;;;;5046734;28;20283;-73
2022/12/13 00:34:25;;;;;;;27.67;16.73;;;-2.20;99.90;;;;;;5052190;28;20606;-73
2022/12/13 00:37:10;;;;;;;24.67;15.80;;;-2.10;99.90;;;;;;5042122;28;20205;-73
2022/12/13 00:39:57;;;;;;;22.23;14.18;;;-2.10;99.90;;;;;;5041957;28;20668;-75
2022/12/13 00:42:43;;;;;;;20.73;14.43;;;-2.20;99.90;;;;;;5056326;28;20224;-73
2022/12/13 00:45:28;;;;;;;24.10;15.20;;;-2.40;99.90;;;;;;5042845;28;20710;-73
2022/12/13 00:48:14;;;;;;;22.67;15.25;;;-2.40;99.90;;;;;;5051865;28;20317;-73
2022/12/13 00:50:59;;;;;;;24.65;15.32;;;-2.50;99.90;;;;;;5043310;28;20204;-76
2022/12/13 00:53:45;;;;;;;20.10;14.65;;;-2.60;99.90;;;;;;5051949;28;20356;-73
2022/12/13 00:56:33;;;;;;;25.13;16.52;;;-2.50;99.90;;;;;;5052886;28;20251;-73
2022/12/13 00:59:18;;;;;;;22.83;15.80;;;-2.70;99.90;;;;;;5049159;28;20196;-74
2022/12/13 01:02:04;;;;;;;23.83;16.30;;;-2.70;99.90;;;;;;5052748;28;20217;-73
2022/12/13 01:04:50;;;;;;;32.15;16.85;;;-2.80;99.90;;;;;;5050547;28;20770;-73
2022/12/13 01:07:36;;;;;;;27.60;16.10;;;-2.70;99.90;;;;;;5053058;28;20209;-72
2022/12/13 01:10:21;;;;;;;25.10;16.23;;;-2.50;99.90;;;;;;5043454;28;20352;-74
2022/12/13 01:13:08;;;;;;;24.23;16.02;;;-2.40;99.90;;;;;;5046435;28;20221;-73
2022/12/13 01:15:54;;;;;;;25.92;15.98;;;-2.50;99.90;;;;;;5049967;28;20196;-73
2022/12/13 01:18:41;;;;;;;24.35;16.20;;;-2.50;99.90;;;;;;5047843;28;20274;-74
2022/12/13 01:21:26;;;;;;;27.02;18.17;;;-2.80;99.90;;;;;;5043040;28;20201;-74
2022/12/13 01:24:12;;;;;;;25.77;17.27;;;-3.00;99.90;;;;;;5048346;28;20223;-74
2022/12/13 01:26:58;;;;;;;28.67;18.77;;;-2.90;99.90;;;;;;5052273;28;20204;-77
2022/12/13 01:29:44;;;;;;;27.33;18.45;;;-3.00;99.90;;;;;;5045254;28;20245;-73
2022/12/13 01:32:30;;;;;;;28.20;19.55;;;-3.00;99.90;;;;;;5045568;28;20812;-72
2022/12/13 01:35:16;;;;;;;31.48;18.02;;;-3.00;99.90;;;;;;5051683;28;20205;-74
2022/12/13 01:38:02;;;;;;;25.40;17.15;;;-2.90;99.90;;;;;;5041530;28;20201;-74
2022/12/13 01:40:56;;;;;;;24.98;16.83;;;-2.90;99.90;;;;;;5047465;28;20223;-74
2022/12/13 01:43:59;;;;;;;23.40;17.70;;;-2.80;99.90;;;;;;5044319;28;20229;-74
2022/12/13 01:46:46;;;;;;;27.17;17.15;;;-2.80;99.90;;;;;;5050901;28;20294;-73
2022/12/13 01:49:32;;;;;;;25.80;17.52;;;-2.80;99.90;;;;;;5036750;28;20220;-74
2022/12/13 01:52:17;;;;;;;26.50;16.85;;;-2.90;99.90;;;;;;5042625;28;20272;-73
2022/12/13 01:55:06;;;;;;;24.80;16.67;;;-2.80;99.90;;;;;;5046287;28;20780;-73
2022/12/13 01:57:54;;;;;;;24.00;16.38;;;-2.70;99.90;;;;;;5048594;28;20583;-75
2022/12/13 02:00:40;;;;;;;29.13;16.27;;;-2.70;99.90;;;;;;5036557;28;20313;-75
2022/12/13 02:03:27;;;;;;;23.83;15.55;;;-2.60;99.90;;;;;;5047044;28;20299;-74
2022/12/13 02:06:18;;;;;;;22.08;15.07;;;-2.50;99.90;;;;;;5039024;28;20200;-73
2022/12/13 02:09:05;;;;;;;24.25;16.65;;;-2.90;99.90;;;;;;5044429;28;20275;-73
2022/12/13 02:11:51;;;;;;;26.38;15.90;;;-2.90;99.90;;;;;;5045435;28;20576;-74
2022/12/13 02:14:39;;;;;;;25.58;16.30;;;-2.80;99.90;;;;;;5044857;28;20726;-74
2022/12/13 02:17:34;;;;;;;23.60;15.80;;;-2.80;99.90;;;;;;5042581;28;20691;-74
2022/12/13 02:21:03;;;;;;;24.50;17.17;;;-3.00;99.90;;;;;;5044500;28;20201;-73
2022/12/13 02:24:30;;;;;;;22.35;15.98;;;-3.10;99.90;;;;;;5031636;28;20287;-73
2022/12/13 02:27:50;;;;;;;25.05;16.08;;;-3.00;99.90;;;;;;5044760;28;20618;-73
2022/12/13 02:30:41;;;;;;;25.83;15.98;;;-3.10;99.90;;;;;;5043533;28;20336;-73
2022/12/13 02:33:38;;;;;;;24.67;16.67;;;-3.20;99.90;;;;;;5040866;28;20630;-74
2022/12/13 02:36:29;;;;;;;23.80;16.30;;;-3.40;99.90;;;;;;5049774;28;20205;-74
2022/12/13 02:39:20;;;;;;;24.48;16.20;;;-3.30;99.90;;;;;;5035134;28;20565;-74
2022/12/13 02:42:13;;;;;;;29.73;17.95;;;-3.30;99.90;;;;;;5047658;28;20279;-74
2022/12/13 02:45:05;;;;;;;26.27;17.48;;;-3.20;99.90;;;;;;5045344;28;20201;-74
2022/12/13 02:47:56;;;;;;;25.55;17.08;;;-3.40;99.90;;;;;;5045596;28;20295;-74
2022/12/13 02:50:43;;;;;;;25.75;16.08;;;-3.30;99.90;;;;;;5039125;28;20768;-74
2022/12/13 02:53:29;;;;;;;28.20;17.38;;;-3.10;99.90;;;;;;5047075;28;20224;-74
2022/12/13 02:56:15;;;;;;;24.45;17.02;;;-3.10;99.90;;;;;;5047765;28;20562;-74
2022/12/13 02:59:05;;;;;;;28.60;18.60;;;-3.10;99.90;;;;;;5041249;28;20239;-74
2022/12/13 03:02:00;;;;;;;28.75;17.85;;;-3.20;99.90;;;;;;5045292;28;20214;-74
2022/12/13 03:08:18;;;;;;;29.45;19.08;;;-3.40;99.90;;;;;;5042258;28;20353;-74
2022/12/13 03:11:08;;;;;;;26.70;17.60;;;-3.60;99.90;;;;;;5049665;28;20216;-74
2022/12/13 03:13:55;;;;;;;29.27;19.58;;;-3.50;99.90;;;;;;5048403;28;20224;-74
2022/12/13 03:16:44;;;;;;;31.42;19.30;;;-3.50;99.90;;;;;;5046829;28;20205;-74
2022/12/13 03:19:30;;;;;;;31.52;19.33;;;-3.50;99.90;;;;;;5038586;28;20570;-74
2022/12/13 03:22:17;;;;;;;29.15;16.42;;;-3.50;99.90;;;;;;5048559;28;20320;-74
2022/12/13 03:25:02;;;;;;;26.48;18.73;;;-3.40;99.90;;;;;;5042062;28;20221;-74
2022/12/13 03:27:48;;;;;;;25.55;17.45;;;-3.50;99.90;;;;;;5039451;28;20328;-73
2022/12/13 03:30:34;;;;;;;30.10;20.35;;;-3.40;99.90;;;;;;5040000;28;20607;-74
2022/12/13 03:33:20;;;;;;;28.00;18.23;;;-3.50;99.90;;;;;;5046286;28;20267;-74
2022/12/13 03:36:07;;;;;;;27.00;19.35;;;-3.50;99.90;;;;;;5047541;28;20751;-74
2022/12/13 03:38:55;;;;;;;30.15;19.25;;;-3.40;99.90;;;;;;5046753;28;20717;-74
2022/12/13 03:41:40;;;;;;;28.35;18.50;;;-3.50;99.90;;;;;;5047642;28;20274;-74
2022/12/13 03:44:26;;;;;;;29.48;18.65;;;-3.50;99.90;;;;;;5048963;28;20204;-74
2022/12/13 03:47:11;;;;;;;28.73;17.92;;;-3.40;99.90;;;;;;5045564;28;20204;-74
2022/12/13 03:49:57;;;;;;;27.60;19.20;;;-3.40;99.90;;;;;;5050110;28;20238;-74
2022/12/13 03:52:43;;;;;;;31.15;17.20;;;-3.60;99.90;;;;;;5047497;28;20229;-74
2022/12/13 03:55:30;;;;;;;27.95;18.45;;;-3.50;99.90;;;;;;5042332;28;20562;-74
2022/12/13 03:58:16;;;;;;;24.58;16.55;;;-3.70;99.90;;;;;;5044845;28;20213;-74
2022/12/13 04:01:01;;;;;;;22.50;14.65;;;-3.60;99.90;;;;;;5043872;28;20287;-74
2022/12/13 04:03:47;;;;;;;27.77;18.35;;;-3.60;99.90;;;;;;5050026;28;20228;-74
2022/12/13 04:06:32;;;;;;;28.30;16.80;;;-3.70;99.90;;;;;;5045272;28;20213;-73
2022/12/13 04:09:18;;;;;;;25.42;17.65;;;-3.60;99.90;;;;;;5052091;28;20201;-74
2022/12/13 04:15:09;;;;;;;27.17;18.35;;;-3.80;99.90;;;;;;5046812;28;20255;-74
2022/12/13 04:17:55;;;;;;;25.98;17.80;;;-3.70;99.90;;;;;;5043994;28;20227;-74
2022/12/13 04:20:41;;;;;;;26.73;17.55;;;-3.70;99.90;;;;;;5052085;28;20205;-74
2022/12/13 04:23:26;;;;;;;29.48;19.02;;;-3.70;99.90;;;;;;5049324;28;20240;-74
2022/12/13 04:26:12;;;;;;;32.70;18.60;;;-3.80;99.90;;;;;;5041812;28;20205;-73
2022/12/13 04:28:59;;;;;;;27.83;17.40;;;-3.70;99.90;;;;;;5042673;28;20695;-74
2022/12/13 04:31:44;;;;;;;29.08;19.17;;;-3.50;99.90;;;;;;5039707;28;20697;-74
2022/12/13 04:34:30;;;;;;;25.30;17.25;;;-3.60;99.90;;;;;;5047604;28;20693;-74
2022/12/13 04:37:16;;;;;;;26.13;17.88;;;-3.70;99.90;;;;;;5043661;28;20213;-74
2022/12/13 04:40:01;;;;;;;27.67;17.85;;;-3.60;99.90;;;;;;5050138;28;20204;-74
2022/12/13 04:42:47;;;;;;;25.65;18.30;;;-3.60;99.90;;;;;;5048724;28;20229;-74
2022/12/13 04:45:34;;;;;;;27.45;17.83;;;-3.70;99.90;;;;;;5047164;28;20213;-74
2022/12/13 04:48:19;;;;;;;24.70;16.95;;;-3.60;99.90;;;;;;5049397;28;20279;-74
2022/12/13 04:51:06;;;;;;;25.08;17.75;;;-3.60;99.90;;;;;;5050542;28;20591;-74
2022/12/13 04:53:51;;;;;;;31.27;19.85;;;-3.60;99.90;;;;;;5050407;28;20809;-73
2022/12/13 04:56:38;;;;;;;26.95;16.75;;;-3.60;99.90;;;;;;5042774;28;20200;-74
2022/12/13 04:59:23;;;;;;;26.35;17.38;;;-3.80;99.90;;;;;;5050004;28;20574;-74
2022/12/13 05:02:10;;;;;;;22.52;16.23;;;-3.90;99.90;;;;;;5049706;28;20223;-74
2022/12/13 05:04:56;;;;;;;28.05;17.30;;;-3.80;99.90;;;;;;5050626;28;20243;-74
2022/12/13 05:07:42;;;;;;;25.20;17.60;;;-3.80;99.90;;;;;;5045025;28;20208;-74
2022/12/13 05:10:27;;;;;;;27.42;19.33;;;-3.90;99.90;;;;;;5048275;28;20295;-74
2022/12/13 05:13:13;;;;;;;26.17;17.45;;;-3.80;99.90;;;;;;5047606;28;20225;-74
2022/12/13 05:16:00;;;;;;;27.33;16.90;;;-3.80;99.90;;;;;;5041086;28;20604;-74
2022/12/13 05:18:47;;;;;;;26.10;18.13;;;-3.90;99.90;;;;;;5051099;28;20209;-73
2022/12/13 05:21:33;;;;;;;28.65;18.10;;;-3.90;99.90;;;;;;5046097;28;20670;-74
2022/12/13 05:24:19;;;;;;;30.27;18.45;;;-3.90;99.90;;;;;;5045583;28;20205;-74
2022/12/13 05:27:05;;;;;;;26.60;17.30;;;-3.90;99.90;;;;;;5036545;28;20205;-74
2022/12/13 05:29:50;;;;;;;26.50;17.67;;;-4.00;99.90;;;;;;5049655;28;20279;-73
2022/12/13 05:32:37;;;;;;;25.67;17.70;;;-3.90;99.90;;;;;;5050728;28;20279;-74
2022/12/13 05:35:24;;;;;;;24.80;16.98;;;-4.10;99.90;;;;;;5051990;28;20217;-74
2022/12/13 05:38:10;;;;;;;26.45;17.08;;;-4.10;99.90;;;;;;5050849;28;20196;-74
2022/12/13 05:40:55;;;;;;;25.40;17.52;;;-4.10;99.90;;;;;;5047621;28;20316;-74
2022/12/13 05:43:40;;;;;;;26.92;17.40;;;-4.00;99.90;;;;;;5043448;28;20238;-73
2022/12/13 05:46:26;;;;;;;27.17;18.23;;;-4.10;99.90;;;;;;5044529;28;20201;-74
2022/12/13 05:49:12;;;;;;;25.73;18.25;;;-4.20;99.90;;;;;;5051969;28;20221;-74
2022/12/13 05:51:59;;;;;;;29.13;18.65;;;-4.20;99.90;;;;;;5050778;28;20758;-74
2022/12/13 05:54:45;;;;;;;30.95;18.98;;;-4.50;99.90;;;;;;5049938;28;20616;-73
2022/12/13 05:57:30;;;;;;;28.02;19.42;;;-4.40;99.90;;;;;;5050676;28;20211;-74
2022/12/13 06:00:16;;;;;;;26.20;17.90;;;-4.20;99.90;;;;;;5046321;28;20213;-74
2022/12/13 06:03:02;;;;;;;28.10;19.00;;;-4.20;99.90;;;;;;5044824;28;20271;-73
2022/12/13 06:05:47;;;;;;;24.52;17.10;;;-4.20;99.90;;;;;;5046262;28;20232;-73
2022/12/13 06:08:34;;;;;;;28.38;18.85;;;-4.10;99.90;;;;;;5047915;28;20212;-74
2022/12/13 06:11:20;;;;;;;30.20;18.27;;;-4.20;99.90;;;;;;5049453;28;20227;-73
2022/12/13 06:14:06;;;;;;;31.75;21.77;;;-4.10;99.90;;;;;;5047810;28;20229;-73
2022/12/13 06:16:52;;;;;;;29.10;19.33;;;-4.30;99.90;;;;;;5043812;28;20212;-74
2022/12/13 06:19:37;;;;;;;30.10;20.05;;;-4.40;99.90;;;;;;5045711;28;20209;-74
2022/12/13 06:22:23;;;;;;;31.23;19.42;;;-4.30;99.90;;;;;;5043946;28;20233;-73
2022/12/13 06:25:10;;;;;;;30.50;19.00;;;-4.40;99.90;;;;;;5040668;28;20216;-74
2022/12/13 06:27:55;;;;;;;25.40;16.92;;;-4.30;99.90;;;;;;5050173;28;20200;-74
2022/12/13 06:30:41;;;;;;;25.73;18.13;;;-4.10;99.90;;;;;;5050243;28;20216;-74
2022/12/13 06:33:27;;;;;;;30.13;17.70;;;-4.00;99.90;;;;;;5046562;28;20228;-74
2022/12/13 06:36:13;;;;;;;27.20;17.35;;;-4.20;99.90;;;;;;5039022;28;20706;-73
2022/12/13 06:39:02;;;;;;;25.27;17.40;;;-4.20;99.90;;;;;;5044071;28;20201;-74
2022/12/13 06:41:49;;;;;;;26.02;18.15;;;-4.10;99.90;;;;;;5041046;28;20213;-73
2022/12/13 06:44:35;;;;;;;33.03;21.10;;;-4.10;99.90;;;;;;5041338;28;20221;-73
2022/12/13 06:47:20;;;;;;;27.88;19.30;;;-4.10;99.90;;;;;;5042733;28;20197;-74
2022/12/13 06:50:07;;;;;;;39.53;20.58;;;-4.20;99.90;;;;;;5040254;28;20244;-74
2022/12/13 06:52:53;;;;;;;27.83;18.67;;;-4.10;99.90;;;;;;5040637;28;20744;-74
2022/12/13 06:55:39;;;;;;;45.10;29.38;;;-4.20;99.90;;;;;;5043395;28;20207;-74
2022/12/13 06:58:26;;;;;;;31.08;22.20;;;-4.10;99.90;;;;;;5045739;28;20201;-74
2022/12/13 07:01:14;;;;;;;38.05;26.05;;;-4.00;99.90;;;;;;5046980;28;20243;-74
2022/12/13 07:03:59;;;;;;;35.97;25.52;;;-4.10;99.90;;;;;;5044855;28;20232;-74
2022/12/13 07:06:44;;;;;;;347.42;123.13;;;-4.30;99.90;;;;;;5048743;28;20202;-74
2022/12/13 07:09:30;;;;;;;49.47;26.75;;;-4.40;99.90;;;;;;5047545;28;20212;-74
2022/12/13 07:12:16;;;;;;;161.63;58.58;;;-4.50;99.90;;;;;;5046089;28;20367;-74
2022/12/13 07:15:03;;;;;;;169.70;58.53;;;-4.50;99.90;;;;;;5044235;28;20208;-74
2022/12/13 07:17:49;;;;;;;130.40;51.03;;;-4.30;99.90;;;;;;5047769;28;20209;-74
2022/12/13 07:20:35;;;;;;;267.85;99.20;;;-4.10;99.90;;;;;;5046133;28;20791;-74
2022/12/13 07:23:20;;;;;;;48.25;25.83;;;-4.30;99.90;;;;;;5043895;28;20698;-74
2022/12/13 07:26:08;;;;;;;38.90;23.35;;;-4.20;99.90;;;;;;5041888;28;20705;-73
2022/12/13 07:28:53;;;;;;;53.40;27.10;;;-4.00;99.90;;;;;;5048677;28;20213;-73
2022/12/13 07:31:40;;;;;;;100.30;48.53;;;-4.00;99.90;;;;;;5050156;28;20224;-74
2022/12/13 07:34:26;;;;;;;70.80;39.55;;;-4.10;99.90;;;;;;5045942;28;20213;-74
2022/12/13 07:37:11;;;;;;;65.22;35.72;;;-3.90;99.90;;;;;;5049666;28;20201;-73
2022/12/13 07:39:58;;;;;;;61.13;35.88;;;-3.90;99.90;;;;;;5046389;28;20205;-74
2022/12/13 07:42:49;;;;;;;53.60;31.02;;;-3.80;99.90;;;;;;5050384;28;20595;-74
2022/12/13 07:45:36;;;;;;;45.10;26.55;;;-3.90;99.90;;;;;;5042965;28;20209;-73
2022/12/13 07:48:23;;;;;;;31.73;21.85;;;-3.90;99.90;;;;;;5045862;28;20196;-74
2022/12/13 07:51:11;;;;;;;40.78;23.63;;;-3.70;99.90;;;;;;5047801;28;20209;-74
2022/12/13 07:53:57;;;;;;;27.73;19.27;;;-3.70;99.90;;;;;;5041403;28;20591;-74
2022/12/13 07:56:43;;;;;;;27.25;17.60;;;-3.60;99.90;;;;;;5054145;28;20212;-74
2022/12/13 07:59:28;;;;;;;34.78;21.83;;;-3.60;99.90;;;;;;5052603;28;20786;-74
2022/12/13 08:02:14;;;;;;;61.58;36.75;;;-3.60;99.90;;;;;;5051445;28;20232;-73
2022/12/13 08:05:01;;;;;;;48.70;26.48;;;-3.70;99.90;;;;;;5052171;28;20271;-74
2022/12/13 08:07:47;;;;;;;37.35;24.13;;;-3.70;99.90;;;;;;5050351;28;20204;-75
2022/12/13 08:10:33;;;;;;;37.22;24.13;;;-3.80;99.90;;;;;;5046981;28;20360;-74
2022/12/13 08:13:18;;;;;;;35.38;23.50;;;-3.80;99.90;;;;;;5046871;28;20224;-73
2022/12/13 08:16:06;;;;;;;37.17;23.83;;;-3.50;99.90;;;;;;5049495;28;20204;-74
2022/12/13 08:18:52;;;;;;;33.72;23.20;;;-3.50;99.90;;;;;;5050208;28;20319;-74
2022/12/13 08:21:41;;;;;;;35.85;23.20;;;-3.40;99.90;;;;;;5045252;28;20209;-73
2022/12/13 08:24:29;;;;;;;32.22;20.95;;;-3.30;99.90;;;;;;5040100;28;20591;-74
2022/12/13 08:27:14;;;;;;;27.92;18.00;;;-3.10;99.90;;;;;;5053775;28;20233;-74
2022/12/13 08:30:00;;;;;;;33.42;18.42;;;-3.00;99.90;;;;;;5046980;28;20256;-74
2022/12/13 08:32:45;;;;;;;28.50;18.40;;;-2.80;99.90;;;;;;5047557;28;20729;-74
2022/12/13 08:35:31;;;;;;;26.75;16.95;;;-2.90;99.90;;;;;;5048500;28;20291;-74
2022/12/13 08:38:18;;;;;;;26.33;18.45;;;-2.80;99.90;;;;;;5047372;28;20205;-73
2022/12/13 08:41:04;;;;;;;26.60;18.75;;;-2.70;99.90;;;;;;5044529;28;20201;-73
2022/12/13 08:43:49;;;;;;;29.15;20.17;;;-2.70;99.90;;;;;;5046150;28;20235;-73
2022/12/13 08:46:34;;;;;;;30.55;20.95;;;-2.80;99.90;;;;;;5048496;28;20236;-74
2022/12/13 08:49:20;;;;;;;31.27;20.60;;;-2.70;99.90;;;;;;5049601;28;20205;-74
2022/12/13 08:52:06;;;;;;;31.30;21.42;;;-2.80;99.90;;;;;;5042358;28;20344;-74
2022/12/13 08:54:52;;;;;;;30.05;20.67;;;-2.90;99.90;;;;;;5042213;28;20778;-74
2022/12/13 08:57:39;;;;;;;30.90;22.10;;;-2.80;99.90;;;;;;5050559;28;20275;-74
2022/12/13 09:00:25;;;;;;;30.13;22.25;;;-2.80;99.90;;;;;;5043698;28;20545;-74
2022/12/13 09:03:11;;;;;;;30.88;22.02;;;-2.90;99.90;;;;;;5046133;28;20267;-75
2022/12/13 09:05:56;;;;;;;32.47;21.88;;;-2.80;99.90;;;;;;5045914;28;20212;-73
2022/12/13 09:08:43;;;;;;;30.10;20.92;;;-2.70;99.90;;;;;;5041709;28;20240;-74
2022/12/13 09:11:30;;;;;;;27.95;19.05;;;-2.70;99.90;;;;;;5045794;28;20700;-74
2022/12/13 09:14:16;;;;;;;29.30;20.00;;;-2.70;99.90;;;;;;5042195;28;20220;-74
2022/12/13 09:17:02;;;;;;;31.13;20.35;;;-2.50;99.90;;;;;;5042682;28;20243;-74
2022/12/13 09:19:47;;;;;;;23.55;16.90;;;-2.50;99.90;;;;;;5045544;28;20204;-74
2022/12/13 09:22:33;;;;;;;25.20;17.40;;;-2.30;99.90;;;;;;5042500;28;20228;-73
2022/12/13 09:25:18;;;;;;;27.17;18.45;;;-2.30;99.90;;;;;;5047184;28;20276;-74
2022/12/13 09:28:07;;;;;;;27.02;17.65;;;-2.10;99.90;;;;;;5044855;28;20252;-73
2022/12/13 09:30:52;;;;;;;22.67;14.10;;;-2.10;99.90;;;;;;5041226;28;20210;-74
2022/12/13 09:33:38;;;;;;;19.05;13.85;;;-2.00;99.90;;;;;;5038260;28;20233;-74
2022/12/13 09:36:24;;;;;;;21.02;14.50;;;-1.90;99.90;;;;;;5042523;28;20216;-74
2022/12/13 09:39:11;;;;;;;22.48;15.13;;;-1.80;99.90;;;;;;5041284;28;20331;-74
2022/12/13 09:41:58;;;;;;;19.77;14.05;;;-1.70;99.90;;;;;;5044594;28;20687;-74
2022/12/13 09:44:51;;;;;;;21.05;14.43;;;-1.70;99.90;;;;;;5048892;28;20577;-74
2022/12/13 09:47:39;;;;;;;21.90;15.07;;;-1.60;99.90;;;;;;5048980;28;20204;-74
2022/12/13 09:50:29;;;;;;;21.95;12.82;;;-1.50;99.90;;;;;;5046670;28;20201;-74
2022/12/13 09:53:18;;;;;;;19.00;14.40;;;-1.40;99.90;;;;;;5041714;28;20237;-74
2022/12/13 09:56:03;;;;;;;22.52;14.45;;;-1.40;99.90;;;;;;5045469;28;20404;-74
2022/12/13 09:58:50;;;;;;;20.83;13.07;;;-1.40;99.90;;;;;;5046720;28;20201;-74
2022/12/13 10:01:37;;;;;;;20.85;12.57;;;-1.40;99.90;;;;;;5047947;28;20201;-74
2022/12/13 10:04:22;;;;;;;17.90;12.88;;;-1.40;99.90;;;;;;5044870;28;20201;-74
2022/12/13 10:07:11;;;;;;;21.73;13.30;;;-1.20;99.90;;;;;;5043889;28;20694;-74
2022/12/13 10:10:01;;;;;;;19.92;13.82;;;-1.10;99.90;;;;;;5049526;28;20201;-74
2022/12/13 10:12:52;;;;;;;19.50;13.73;;;-1.00;99.90;;;;;;5043370;28;20354;-74
2022/12/13 10:15:41;;;;;;;20.05;14.27;;;-0.90;99.90;;;;;;5047162;28;20209;-74
2022/12/13 10:18:34;;;;;;;18.38;13.13;;;-0.80;99.90;;;;;;5043960;28;21693;-74
2022/12/13 10:21:25;;;;;;;17.33;11.98;;;-0.70;99.90;;;;;;5043793;28;20196;-72
2022/12/13 10:24:16;;;;;;;19.75;12.88;;;-0.60;99.90;;;;;;5039117;28;20248;-74
2022/12/13 10:27:12;;;;;;;16.60;12.65;;;-0.20;99.90;;;;;;5049170;28;20251;-74
2022/12/13 10:30:05;;;;;;;18.63;12.77;;;0.20;99.90;;;;;;5048336;28;20228;-74
2022/12/13 10:32:54;;;;;;;17.60;11.45;;;0.70;99.90;;;;;;5038223;28;20232;-74
2022/12/13 10:35:41;;;;;;;16.63;10.35;;;1.10;99.90;;;;;;5044477;28;20205;-75
2022/12/13 10:38:29;;;;;;;15.65;10.73;;;1.40;99.90;;;;;;5039964;28;20201;-74
2022/12/13 10:41:36;;;;;;;18.90;11.30;;;1.80;99.90;;;;;;5040942;28;21759;-74
2022/12/13 10:44:24;;;;;;;15.27;10.38;;;2.20;99.90;;;;;;5040739;28;20620;-75
2022/12/13 10:47:17;;;;;;;17.40;10.52;;;2.40;99.90;;;;;;5044229;28;20244;-74
2022/12/13 10:50:04;;;;;;;14.15;9.30;;;2.50;99.90;;;;;;5043881;28;20201;-74
2022/12/13 10:52:51;;;;;;;18.60;9.82;;;2.60;98.00;;;;;;5043535;28;20348;-74
2022/12/13 10:55:37;;;;;;;13.73;8.80;;;2.70;99.20;;;;;;5050606;28;20205;-74
2022/12/13 10:58:23;;;;;;;14.30;8.73;;;2.70;92.80;;;;;;5044809;28;20205;-74
2022/12/13 11:01:11;;;;;;;13.25;8.43;;;2.60;92.10;;;;;;5043066;28;20328;-75
2022/12/13 11:03:59;;;;;;;13.07;9.38;;;2.60;91.20;;;;;;5047886;28;20229;-74
2022/12/13 11:06:47;;;;;;;17.10;9.10;;;2.30;91.10;;;;;;5044996;28;20709;-74
2022/12/13 11:09:35;;;;;;;14.52;10.10;;;2.10;92.80;;;;;;5043685;28;20205;-74
2022/12/13 11:12:23;;;;;;;15.32;10.13;;;1.90;96.30;;;;;;5041499;28;20245;-75
2022/12/13 11:15:16;;;;;;;16.63;9.10;;;1.70;98.70;;;;;;5039677;28;20288;-75
2022/12/13 11:18:06;;;;;;;12.98;8.02;;;1.80;97.90;;;;;;5042021;28;20200;-75
2022/12/13 11:20:56;;;;;;;15.57;8.98;;;1.70;96.40;;;;;;5044376;28;20224;-74
2022/12/13 11:23:45;;;;;;;17.02;9.20;;;1.80;98.40;;;;;;5045311;28;20221;-74
2022/12/13 11:26:35;;;;;;;11.40;8.00;;;1.70;98.30;;;;;;5044585;28;20275;-74
2022/12/13 11:29:59;;;;;;;11.52;7.80;;;1.50;94.80;;;;;;5043235;28;20209;-74
2022/12/13 11:33:10;;;;;;;13.98;7.78;;;1.40;98.00;;;;;;5038079;28;20238;-74
2022/12/13 11:36:08;;;;;;;10.00;7.80;;;1.30;99.80;;;;;;5050064;28;20204;-74
2022/12/13 11:39:06;;;;;;;9.55;6.90;;;1.20;98.00;;;;;;5049990;28;20200;-74
2022/12/13 11:41:58;;;;;;;10.63;7.63;;;1.00;98.20;;;;;;5047669;28;20198;-74
2022/12/13 11:44:52;;;;;;;18.00;7.80;;;1.00;98.10;;;;;;5046638;28;20583;-74
2022/12/13 11:47:45;;;;;;;12.20;8.30;;;1.00;99.70;;;;;;5050081;28;20208;-74
2022/12/13 11:50:36;;;;;;;9.77;6.97;;;1.00;98.00;;;;;;5047298;28;20208;-74
2022/12/13 11:53:28;;;;;;;10.88;6.55;;;1.00;98.80;;;;;;5042954;28;20347;-74
2022/12/13 11:56:22;;;;;;;8.80;6.93;;;1.00;96.80;;;;;;5037726;28;20282;-74
2022/12/13 11:59:21;;;;;;;11.15;7.00;;;1.00;96.20;;;;;;5039372;28;20686;-74
2022/12/13 12:02:16;;;;;;;9.13;6.25;;;1.10;96.60;;;;;;5039540;28;20196;-74
2022/12/13 12:05:06;;;;;;;9.18;6.65;;;1.20;93.90;;;;;;5051352;28;20204;-74
2022/12/13 12:07:56;;;;;;;9.35;5.75;;;1.20;92.10;;;;;;5048072;28;20209;-74
2022/12/13 12:10:43;;;;;;;9.45;5.75;;;1.20;91.90;;;;;;5049799;28;20209;-74
2022/12/13 12:13:35;;;;;;;9.30;5.47;;;1.20;91.40;;;;;;5039860;28;20235;-74
2022/12/13 12:16:28;;;;;;;12.25;6.40;;;1.20;92.60;;;;;;5049774;28;20587;-74
2022/12/13 12:19:16;;;;;;;7.35;5.22;;;1.30;91.80;;;;;;5042534;28;20205;-74
2022/12/13 12:22:15;;;;;;;11.13;8.25;;;1.20;91.50;;;;;;5037761;28;20201;-74
2022/12/13 12:25:17;;;;;;;9.45;6.80;;;1.40;94.10;;;;;;5050376;28;20201;-73
2022/12/13 12:28:10;;;;;;;8.05;6.20;;;1.60;94.10;;;;;;5047620;28;20661;-74
2022/12/13 12:31:06;;;;;;;8.75;5.85;;;1.80;94.40;;;;;;5047169;28;20209;-74
2022/12/13 12:34:04;;;;;;;10.15;6.40;;;2.10;92.90;;;;;;5042638;28;20233;-74
2022/12/13 12:37:01;;;;;;;12.13;6.60;;;2.40;88.40;;;;;;5049036;28;20213;-74
2022/12/13 12:40:00;;;;;;;8.18;5.22;;;2.50;80.40;;;;;;5049024;28;20209;-74
2022/12/13 12:42:53;;;;;;;6.97;4.88;;;2.70;79.40;;;;;;5043937;28;20323;-74
2022/12/13 12:45:58;;;;;;;8.88;6.13;;;3.10;83.30;;;;;;5051274;28;20573;-74
2022/12/13 12:49:13;;;;;;;16.23;5.70;;;3.50;82.90;;;;;;5051985;28;20231;-74
2022/12/13 12:52:05;;;;;;;10.07;5.65;;;3.80;77.50;;;;;;5047387;28;20217;-74
2022/12/13 12:55:02;;;;;;;8.90;5.47;;;4.30;60.60;;;;;;5041504;28;20205;-74
2022/12/13 12:57:59;;;;;;;8.35;5.95;;;5.00;52.40;;;;;;5047313;28;20209;-74
2022/12/13 13:00:53;;;;;;;8.38;5.78;;;5.60;39.50;;;;;;5046895;28;20213;-74
2022/12/13 13:03:42;;;;;;;11.38;6.10;;;5.60;38.40;;;;;;5050314;28;20760;-74
2022/12/13 13:06:34;;;;;;;10.13;5.95;;;5.20;41.60;;;;;;5048594;28;20263;-74
2022/12/13 13:09:21;;;;;;;11.32;6.00;;;4.90;44.60;;;;;;5052290;28;20689;-74
2022/12/13 13:12:09;;;;;;;8.45;6.20;;;4.50;43.70;;;;;;5050390;28;20695;-74
2022/12/13 13:14:55;;;;;;;8.15;5.80;;;3.80;46.50;;;;;;5048691;28;20209;-73
2022/12/13 13:17:47;;;;;;;10.38;5.57;;;3.40;47.90;;;;;;5052705;28;20228;-74
2022/12/13 13:20:33;;;;;;;9.02;5.38;;;3.10;55.30;;;;;;5048823;28;20283;-74
2022/12/13 13:23:20;;;;;;;9.68;6.45;;;2.90;66.10;;;;;;5052552;28;20279;-74
2022/12/13 13:26:06;;;;;;;10.38;7.35;;;2.70;71.40;;;;;;5045129;28;20560;-74
2022/12/13 13:28:52;;;;;;;12.00;6.95;;;2.50;70.50;;;;;;5052038;28;20269;-74
2022/12/13 13:31:55;;;;;;;10.30;6.78;;;2.30;75.10;;;;;;5042025;28;20561;-74
2022/12/13 13:34:43;;;;;;;12.10;6.70;;;2.20;82.10;;;;;;5048392;28;20221;-74
2022/12/13 13:37:46;;;;;;;11.38;6.85;;;1.90;80.80;;;;;;5052567;28;20209;-74
2022/12/13 13:40:35;;;;;;;11.57;7.47;;;1.90;80.40;;;;;;5046593;28;20298;-73
2022/12/13 13:43:29;;;;;;;11.20;6.93;;;1.80;78.20;;;;;;5050316;28;20224;-74
2022/12/13 13:46:14;;;;;;;9.95;6.40;;;1.80;84.30;;;;;;5051195;28;20686;-74
2022/12/13 13:49:04;;;;;;;14.68;8.73;;;1.70;79.30;;;;;;5045622;28;20200;-74
2022/12/13 13:52:06;;;;;;;16.02;7.55;;;1.60;78.10;;;;;;5042832;28;20239;-74
2022/12/13 13:55:32;;;;;;;11.80;7.10;;;1.50;79.50;;;;;;5043280;28;20204;-73
2022/12/13 13:59:05;;;;;;;11.23;7.47;;;1.40;81.40;;;;;;5043970;28;20740;-75
2022/12/13 14:02:34;;;;;;;15.20;7.95;;;1.50;78.50;;;;;;5046860;28;20208;-74
2022/12/13 14:05:53;;;;;;;16.50;6.82;;;1.60;79.20;;;;;;5044302;28;20216;-73
2022/12/13 14:08:51;;;;;;;11.77;8.05;;;1.60;90.50;;;;;;5040589;28;20391;-74
2022/12/13 14:12:18;;;;;;;9.88;6.65;;;1.50;83.20;;;;;;5044889;28;20548;-74
2022/12/13 14:15:47;;;;;;;11.52;6.82;;;1.40;79.70;;;;;;5045340;28;20205;-74
2022/12/13 14:19:11;;;;;;;8.57;6.35;;;1.30;92.30;;;;;;5042726;28;20351;-74
2022/12/13 14:22:18;;;;;;;10.05;6.80;;;1.30;91.50;;;;;;5040291;28;20209;-74
2022/12/13 14:25:28;;;;;;;11.23;7.20;;;1.20;92.50;;;;;;5047754;28;20449;-74
2022/12/13 14:28:21;;;;;;;10.20;6.55;;;0.90;95.80;;;;;;5051004;28;20604;-74
2022/12/13 14:31:16;;;;;;;12.45;8.02;;;0.90;99.70;;;;;;5040453;28;20264;-74
2022/12/13 14:34:03;;;;;;;11.95;8.52;;;0.80;99.90;;;;;;5062414;22;20237;-77